createdAt,value
2023-08-12T00:02:09.293Z,76.15
2023-08-12T00:04:38.672Z,76.66
2023-08-12T00:07:07.437Z,77.21
2023-08-12T00:09:36.454Z,77.28
2023-08-12T00:12:06.115Z,77.48
2023-08-12T00:14:35.243Z,77.24
2023-08-12T00:17:04.689Z,77.72
2023-08-12T00:19:35.141Z,77.72
2023-08-12T00:22:05.736Z,77.66
2023-08-12T00:24:34.859Z,77.80
2023-08-12T00:27:03.580Z,78.22
2023-08-12T00:29:32.619Z,78.64
2023-08-12T00:32:01.966Z,78.23
2023-08-12T00:34:31.155Z,77.93
2023-08-12T00:37:01.553Z,77.97
2023-08-12T00:39:30.631Z,78.35
2023-08-12T00:41:59.359Z,78.82
2023-08-12T00:44:28.492Z,79.18
2023-08-12T00:46:57.397Z,78.86
2023-08-12T00:49:30.155Z,78.88
2023-08-12T00:52:00.856Z,78.61
2023-08-12T00:54:31.166Z,78.51
2023-08-12T00:57:01.456Z,78.78
2023-08-12T00:59:31.225Z,79.09
2023-08-12T01:02:00.195Z,78.83
2023-08-12T01:04:30.133Z,79.41
2023-08-12T01:07:00.372Z,79.40
2023-08-12T01:09:30.932Z,79.43
2023-08-12T01:12:08.980Z,79.37
2023-08-12T01:14:58.340Z,79.32
2023-08-12T01:17:31.099Z,79.26
2023-08-12T01:20:04.235Z,79.03
2023-08-12T01:22:37.946Z,79.05
2023-08-12T01:25:09.705Z,79.30
2023-08-12T01:27:38.701Z,79.45
2023-08-12T01:30:12.230Z,79.83
2023-08-12T01:32:50.257Z,79.62
2023-08-12T01:35:26.231Z,79.71
2023-08-12T01:37:58.060Z,79.79
2023-08-12T01:40:33.648Z,80.13
2023-08-12T01:43:04.501Z,80.45
2023-08-12T01:45:34.051Z,80.63
2023-08-12T01:48:05.134Z,80.60
2023-08-12T01:50:34.406Z,80.18
2023-08-12T01:53:03.411Z,80.43
2023-08-12T01:55:34.117Z,80.39
2023-08-12T01:58:03.039Z,80.75
2023-08-12T02:00:33.012Z,80.65
2023-08-12T02:03:01.975Z,80.87
2023-08-12T02:05:31.211Z,81.11
2023-08-12T02:08:00.148Z,80.69
2023-08-12T02:10:29.249Z,81.04
2023-08-12T02:12:59.283Z,81.65
2023-08-12T02:15:28.438Z,81.57
2023-08-12T02:17:57.271Z,81.63
2023-08-12T02:20:26.711Z,81.40
2023-08-12T02:22:55.452Z,80.91
2023-08-12T02:25:24.587Z,81.18
2023-08-12T02:27:53.333Z,82.05
2023-08-12T02:30:24.159Z,82.08
2023-08-12T02:32:53.027Z,82.21
2023-08-12T02:35:23.150Z,82.01
2023-08-12T02:37:51.912Z,81.95
2023-08-12T02:40:21.024Z,82.06
2023-08-12T02:42:50.006Z,81.89
2023-08-12T02:45:21.378Z,81.72
2023-08-12T02:47:51.600Z,81.56
2023-08-12T02:50:20.727Z,81.84
2023-08-12T02:52:49.431Z,82.01
2023-08-12T02:55:18.941Z,82.36
2023-08-12T02:57:47.750Z,81.96
2023-08-12T03:00:18.275Z,81.85
2023-08-12T03:02:47.293Z,81.99
2023-08-12T03:05:18.451Z,82.15
2023-08-12T03:07:47.406Z,82.33
2023-08-12T03:10:16.596Z,82.11
2023-08-12T03:12:45.708Z,81.47
2023-08-12T03:15:15.013Z,81.49
2023-08-12T03:17:43.940Z,81.57
2023-08-12T03:20:14.036Z,82.69
2023-08-12T03:22:45.229Z,82.59
2023-08-12T03:25:16.136Z,82.62
2023-08-12T03:27:46.701Z,82.51
2023-08-12T03:30:16.320Z,82.32
2023-08-12T03:32:46.528Z,82.42
2023-08-12T03:35:19.259Z,82.47
2023-08-12T03:37:52.368Z,82.00
2023-08-12T03:40:21.975Z,82.12
2023-08-12T03:42:51.659Z,82.43
2023-08-12T03:45:24.649Z,82.75
2023-08-12T03:47:54.005Z,82.60
2023-08-12T03:50:24.115Z,82.37
2023-08-12T03:52:54.374Z,82.34
2023-08-12T03:55:23.760Z,82.72
2023-08-12T03:57:53.107Z,82.54
2023-08-12T04:00:23.247Z,82.53
2023-08-12T04:02:56.794Z,82.45
2023-08-12T04:05:26.003Z,82.83
2023-08-12T04:07:57.146Z,83.01
2023-08-12T04:10:26.400Z,83.09
2023-08-12T04:12:55.806Z,83.22
2023-08-12T04:15:25.204Z,83.41
2023-08-12T04:17:54.102Z,83.65
2023-08-12T04:20:23.528Z,83.64
2023-08-12T04:22:52.595Z,83.81
2023-08-12T04:25:23.896Z,83.82
2023-08-12T04:27:53.607Z,83.60
2023-08-12T04:30:23.916Z,83.93
2023-08-12T04:32:52.855Z,84.01
2023-08-12T04:39:54.973Z,83.76
2023-08-12T04:42:25.523Z,83.61
2023-08-12T04:44:54.867Z,83.45
2023-08-12T04:47:24.033Z,83.79
2023-08-12T04:49:54.584Z,82.97
2023-08-12T04:52:23.549Z,82.99
2023-08-12T04:54:55.679Z,83.18
2023-08-12T04:57:28.406Z,83.40
2023-08-12T04:59:57.679Z,83.42
2023-08-12T05:02:27.493Z,83.76
2023-08-12T05:04:57.534Z,83.47
2023-08-12T05:07:26.462Z,83.06
2023-08-12T05:09:56.928Z,82.75
2023-08-12T05:12:28.280Z,82.99
2023-08-12T05:14:57.442Z,82.78
2023-08-12T05:17:26.657Z,82.34
2023-08-12T05:19:56.142Z,82.17
2023-08-12T05:22:25.407Z,81.71
2023-08-12T05:24:54.608Z,81.63
2023-08-12T05:27:23.668Z,80.71
2023-08-12T05:29:54.273Z,79.42
2023-08-12T05:32:23.067Z,78.98
2023-08-12T05:34:54.401Z,77.49
2023-08-12T05:37:23.221Z,76.75
2023-08-12T05:39:52.168Z,70.20
2023-08-12T05:42:20.996Z,67.35
2023-08-12T05:44:50.062Z,70.46
2023-08-12T05:47:20.126Z,71.13
2023-08-12T05:49:49.212Z,67.86
2023-08-12T05:52:18.129Z,67.32
2023-08-12T05:54:47.234Z,64.77
2023-08-12T05:57:16.051Z,60.03
2023-08-12T05:59:45.102Z,59.28
2023-08-12T06:02:14.084Z,58.42
2023-08-12T06:04:44.740Z,59.32
2023-08-12T06:07:13.537Z,58.08
2023-08-12T06:09:42.617Z,56.24
2023-08-12T06:12:11.673Z,57.15
2023-08-12T06:14:41.065Z,55.70
2023-08-12T06:17:09.916Z,57.35
2023-08-12T06:19:38.990Z,56.81
2023-08-12T06:22:09.263Z,57.41
2023-08-12T06:24:38.431Z,55.28
2023-08-12T06:27:07.656Z,55.36
2023-08-12T06:29:36.799Z,54.21
2023-08-12T06:32:05.770Z,54.66
2023-08-12T06:34:34.797Z,54.09
2023-08-12T06:37:03.680Z,53.57
2023-08-12T06:39:34.080Z,54.87
2023-08-12T06:42:02.899Z,51.48
2023-08-12T06:44:32.954Z,52.47
2023-08-12T06:47:01.761Z,50.93
2023-08-12T06:49:30.849Z,50.54
2023-08-12T06:51:59.776Z,48.75
2023-08-12T06:54:28.918Z,50.13
2023-08-12T06:56:59.082Z,50.49
2023-08-12T06:59:28.145Z,50.19
2023-08-12T07:01:57.003Z,50.26
2023-08-12T07:04:27.289Z,49.57
2023-08-12T07:06:56.149Z,49.85
2023-08-12T07:09:25.175Z,49.30
2023-08-12T07:11:54.110Z,48.51
2023-08-12T07:14:24.549Z,48.17
2023-08-12T07:16:53.568Z,47.93
2023-08-12T07:19:23.014Z,47.95
2023-08-12T07:21:51.832Z,47.99
2023-08-12T07:24:21.014Z,45.60
2023-08-12T07:26:49.860Z,47.38
2023-08-12T07:29:18.881Z,45.30
2023-08-12T07:31:49.190Z,42.87
2023-08-12T07:34:18.374Z,43.08
2023-08-12T07:36:47.316Z,42.96
2023-08-12T07:39:16.473Z,43.04
2023-08-12T07:41:45.392Z,42.41
2023-08-12T07:44:14.577Z,42.63
2023-08-12T07:46:43.356Z,42.33
2023-08-12T07:49:13.988Z,42.35
2023-08-12T07:51:42.857Z,40.86
2023-08-12T07:54:11.957Z,40.22
2023-08-12T07:56:40.766Z,40.86
2023-08-12T07:59:11.564Z,39.19
2023-08-12T08:01:40.470Z,40.65
2023-08-12T08:04:09.554Z,39.52
2023-08-12T08:06:39.860Z,39.54
2023-08-12T08:09:09.110Z,39.97
2023-08-12T08:11:37.930Z,38.27
2023-08-12T08:14:07.124Z,38.71
2023-08-12T08:16:36.119Z,37.40
2023-08-12T08:19:05.531Z,38.23
2023-08-12T08:21:34.562Z,37.70
2023-08-12T08:24:05.469Z,35.57
2023-08-12T08:26:34.414Z,35.04
2023-08-12T08:29:04.195Z,35.91
2023-08-12T08:31:32.995Z,34.61
2023-08-12T08:34:02.214Z,35.86
2023-08-12T08:36:31.086Z,36.33
2023-08-12T08:39:00.199Z,35.67
2023-08-12T08:41:33.685Z,35.40
2023-08-12T08:44:05.452Z,36.54
2023-08-12T08:46:34.432Z,36.28
2023-08-12T08:49:04.504Z,36.00
2023-08-12T08:51:34.157Z,34.46
2023-08-12T08:54:06.417Z,33.86
2023-08-12T08:56:37.739Z,33.51
2023-08-12T08:59:12.013Z,33.91
2023-08-12T09:01:42.390Z,34.36
2023-08-12T09:04:13.292Z,34.65
2023-08-12T09:06:43.788Z,34.24
2023-08-12T09:09:18.487Z,34.06
2023-08-12T09:11:50.181Z,34.39
2023-08-12T09:14:19.654Z,34.64
2023-08-12T09:16:48.512Z,34.47
2023-08-12T09:19:17.943Z,33.98
2023-08-12T09:21:54.409Z,33.22
2023-08-12T09:24:27.044Z,32.59
2023-08-12T09:26:57.695Z,32.94
2023-08-12T09:29:32.149Z,33.67
2023-08-12T09:32:14.204Z,32.45
2023-08-12T09:34:49.880Z,30.71
2023-08-12T09:37:19.398Z,30.63
2023-08-12T09:39:50.416Z,31.40
2023-08-12T09:42:21.336Z,31.08
2023-08-12T09:44:50.465Z,30.49
2023-08-12T09:47:19.415Z,30.68
2023-08-12T09:49:48.527Z,31.05
2023-08-12T09:52:18.686Z,31.95
2023-08-12T09:54:49.236Z,32.36
2023-08-12T09:57:23.961Z,30.94
2023-08-12T09:59:56.246Z,30.45
2023-08-12T10:02:26.640Z,29.94
2023-08-12T10:04:59.061Z,31.10
2023-08-12T10:07:28.561Z,30.95
2023-08-12T10:09:58.543Z,31.13
2023-08-12T10:12:29.029Z,31.72
2023-08-12T10:14:59.803Z,31.52
2023-08-12T10:17:42.763Z,30.99
2023-08-12T10:20:16.793Z,30.59
2023-08-12T10:22:46.977Z,30.06
2023-08-12T10:25:17.070Z,30.17
2023-08-12T10:27:47.423Z,28.88
2023-08-12T10:30:16.964Z,29.17
2023-08-12T10:32:47.626Z,29.19
2023-08-12T10:35:16.783Z,29.05
2023-08-12T10:37:52.589Z,28.70
2023-08-12T10:40:25.346Z,27.55
2023-08-12T10:42:55.682Z,27.84
2023-08-12T10:45:25.101Z,28.17
2023-08-12T10:48:17.437Z,27.86
2023-08-12T10:50:48.435Z,28.13
2023-08-12T10:53:30.682Z,27.37
2023-08-12T10:56:03.124Z,27.19
2023-08-12T10:58:43.007Z,27.09
2023-08-12T11:01:18.821Z,27.31
2023-08-12T11:03:50.108Z,27.93
2023-08-12T11:06:21.748Z,28.10
2023-08-12T11:08:54.961Z,27.97
2023-08-12T11:11:26.181Z,28.19
2023-08-12T11:13:59.146Z,28.06
2023-08-12T11:16:37.768Z,29.40
2023-08-12T11:19:08.131Z,28.52
2023-08-12T11:21:39.352Z,28.68
2023-08-12T11:24:09.329Z,29.57
2023-08-12T11:26:43.620Z,28.20
2023-08-12T11:29:14.678Z,27.93
2023-08-12T11:31:43.945Z,26.98
2023-08-12T11:34:14.044Z,28.00
2023-08-12T11:36:44.342Z,27.47
2023-08-12T11:39:13.154Z,26.85
2023-08-12T11:41:42.188Z,27.21
2023-08-12T11:44:18.792Z,28.34
2023-08-12T11:46:48.019Z,28.53
2023-08-12T11:49:16.839Z,28.08
2023-08-12T11:51:49.818Z,29.79
2023-08-12T11:54:19.022Z,29.50
2023-08-12T11:56:48.777Z,27.64
2023-08-12T11:59:19.002Z,26.75
2023-08-12T12:01:52.322Z,27.17
2023-08-12T12:04:23.865Z,26.52
2023-08-12T12:06:52.963Z,27.34
2023-08-12T12:09:22.434Z,28.87
2023-08-12T12:11:55.440Z,28.52
2023-08-12T12:14:26.989Z,29.58
2023-08-12T12:16:56.215Z,31.00
2023-08-12T12:19:25.854Z,30.51
2023-08-12T12:21:55.935Z,30.88
2023-08-12T12:24:24.832Z,31.45
2023-08-12T12:26:54.208Z,31.11
2023-08-12T12:29:23.187Z,32.51
2023-08-12T12:31:53.673Z,32.86
2023-08-12T12:34:22.861Z,32.60
2023-08-12T12:36:51.866Z,32.58
2023-08-12T12:39:20.859Z,33.68
2023-08-12T12:41:49.943Z,33.51
2023-08-12T12:44:18.738Z,33.30
2023-08-12T12:46:47.878Z,32.66
2023-08-12T12:49:18.080Z,33.73
2023-08-12T12:51:47.216Z,33.81
2023-08-12T12:54:16.014Z,32.97
2023-08-12T12:56:45.199Z,32.96
2023-08-12T12:59:15.736Z,32.64
2023-08-12T13:01:45.026Z,33.62
2023-08-12T13:04:13.806Z,33.75
2023-08-12T13:06:44.685Z,33.53
2023-08-12T13:09:14.721Z,32.35
2023-08-12T13:11:43.812Z,32.93
2023-08-12T13:14:12.576Z,33.04
2023-08-12T13:16:41.774Z,33.94
2023-08-12T13:19:10.613Z,33.79
2023-08-12T13:21:39.701Z,33.13
2023-08-12T13:24:09.990Z,32.95
2023-08-12T13:26:39.184Z,33.40
2023-08-12T13:29:08.082Z,32.94
2023-08-12T13:31:37.304Z,33.37
2023-08-12T13:34:06.337Z,33.66
2023-08-12T13:36:35.412Z,32.81
2023-08-12T13:39:04.364Z,32.89
2023-08-12T13:41:34.956Z,33.07
2023-08-12T13:44:04.665Z,33.03
2023-08-12T13:46:33.789Z,33.76
2023-08-12T13:49:02.505Z,33.05
2023-08-12T13:51:33.053Z,33.21
2023-08-12T13:54:02.064Z,33.57
2023-08-12T13:56:32.444Z,33.37
2023-08-12T13:59:02.738Z,32.90
2023-08-12T14:01:31.900Z,33.32
2023-08-12T14:04:00.688Z,33.09
2023-08-12T14:06:29.988Z,32.10
2023-08-12T14:08:58.888Z,31.60
2023-08-12T14:11:28.022Z,32.03
2023-08-12T14:13:59.738Z,32.78
2023-08-12T14:16:30.267Z,33.46
2023-08-12T14:18:59.145Z,32.71
2023-08-12T14:21:28.282Z,32.98
2023-08-12T14:23:57.106Z,32.72
2023-08-12T14:26:26.196Z,32.84
2023-08-12T14:28:55.032Z,33.65
2023-08-12T14:31:24.091Z,33.44
2023-08-12T14:33:54.185Z,32.82
2023-08-12T14:36:23.241Z,32.61
2023-08-12T14:38:53.140Z,33.57
2023-08-12T14:41:22.282Z,33.54
2023-08-12T14:43:51.159Z,33.98
2023-08-12T14:46:20.329Z,33.45
2023-08-12T14:48:49.081Z,33.09
2023-08-12T14:51:19.557Z,32.86
2023-08-12T14:53:49.108Z,33.01
2023-08-12T14:56:18.554Z,33.02
2023-08-12T14:58:47.350Z,33.46
2023-08-12T15:01:17.410Z,34.01
2023-08-12T15:03:46.466Z,32.92
2023-08-12T15:06:15.976Z,33.24
2023-08-12T15:08:46.202Z,32.67
2023-08-12T15:11:15.325Z,34.05
2023-08-12T15:13:44.259Z,34.12
2023-08-12T15:16:13.499Z,33.73
2023-08-12T15:18:43.615Z,33.96
2023-08-12T15:21:12.749Z,33.97
2023-08-12T15:23:41.490Z,33.29
2023-08-12T15:26:12.235Z,33.70
2023-08-12T15:28:41.250Z,33.67
2023-08-12T15:31:10.337Z,34.20
2023-08-12T15:33:39.280Z,33.80
2023-08-12T15:36:08.584Z,33.36
2023-08-12T15:38:38.085Z,33.53
2023-08-12T15:41:17.002Z,33.17
2023-08-12T15:43:46.302Z,33.16
2023-08-12T15:46:15.691Z,34.23
2023-08-12T15:48:44.663Z,34.33
2023-08-12T15:51:13.732Z,33.78
2023-08-12T15:53:42.683Z,34.37
2023-08-12T15:56:11.823Z,33.86
2023-08-12T15:58:41.982Z,35.86
2023-08-12T16:01:12.016Z,33.89
2023-08-12T16:03:41.042Z,33.38
2023-08-12T16:06:10.241Z,34.49
2023-08-12T16:08:39.847Z,34.51
2023-08-12T16:11:08.900Z,34.32
2023-08-12T16:13:37.874Z,32.77
2023-08-12T16:16:08.368Z,33.91
2023-08-12T16:18:37.222Z,33.02
2023-08-12T16:21:06.311Z,32.78
2023-08-12T16:23:35.128Z,35.90
2023-08-12T16:26:04.257Z,35.54
2023-08-12T16:28:33.178Z,36.05
2023-08-12T16:31:03.153Z,37.14
2023-08-12T16:33:33.396Z,36.68
2023-08-12T16:36:02.443Z,36.28
2023-08-12T16:38:31.248Z,36.28
2023-08-12T16:41:00.335Z,38.11
2023-08-12T16:43:29.187Z,38.36
2023-08-12T16:45:58.529Z,39.59
2023-08-12T16:48:27.391Z,40.58
2023-08-12T16:50:57.837Z,39.88
2023-08-12T16:53:26.739Z,40.13
2023-08-12T16:55:56.230Z,40.26
2023-08-12T16:58:25.118Z,41.16
2023-08-12T17:00:54.141Z,41.71
2023-08-12T17:03:23.054Z,41.78
2023-08-12T17:05:52.166Z,42.52
2023-08-12T17:08:22.251Z,43.21
2023-08-12T17:10:51.342Z,42.85
2023-08-12T17:13:21.288Z,43.05
2023-08-12T17:15:50.463Z,43.57
2023-08-12T17:18:19.187Z,43.88
2023-08-12T17:20:48.273Z,44.52
2023-08-12T17:23:17.018Z,45.20
2023-08-12T17:25:47.559Z,45.69
2023-08-12T17:28:16.524Z,45.99
2023-08-12T17:30:45.649Z,47.11
2023-08-12T17:33:14.413Z,46.17
2023-08-12T17:35:43.742Z,47.63
2023-08-12T17:38:14.121Z,47.71
2023-08-12T17:40:43.251Z,47.66
2023-08-12T17:43:14.392Z,48.12
2023-08-12T17:45:44.816Z,46.92
2023-08-12T17:48:13.650Z,47.43
2023-08-12T17:50:42.746Z,48.04
2023-08-12T17:53:11.543Z,48.75
2023-08-12T17:55:40.823Z,49.82
2023-08-12T17:58:09.623Z,51.61
2023-08-12T18:00:40.262Z,51.74
2023-08-12T18:03:09.357Z,51.50
2023-08-12T18:05:38.634Z,51.60
2023-08-12T18:08:07.951Z,52.10
2023-08-12T18:10:37.012Z,52.15
2023-08-12T18:13:06.000Z,51.79
2023-08-12T18:15:35.125Z,52.23
2023-08-12T18:18:05.656Z,53.18
2023-08-12T18:20:34.875Z,53.47
2023-08-12T18:23:04.204Z,53.75
2023-08-12T18:25:33.549Z,53.91
2023-08-12T18:28:02.828Z,53.24
2023-08-12T18:30:33.419Z,54.15
2023-08-12T18:33:04.284Z,55.08
2023-08-12T18:35:35.155Z,52.52
2023-08-12T18:38:04.067Z,52.99
2023-08-12T18:40:34.018Z,53.45
2023-08-12T18:43:03.046Z,54.91
2023-08-12T18:45:32.150Z,55.68
2023-08-12T18:48:01.016Z,54.12
2023-08-12T18:50:30.160Z,55.64
2023-08-12T18:53:00.326Z,56.40
2023-08-12T18:55:29.715Z,56.73
2023-08-12T18:57:58.514Z,56.57
2023-08-12T19:00:27.782Z,55.83
2023-08-12T19:02:56.582Z,55.68
2023-08-12T19:05:25.793Z,56.58
2023-08-12T19:07:54.635Z,56.51
2023-08-12T19:10:25.410Z,56.47
2023-08-12T19:12:54.130Z,56.11
2023-08-12T19:15:23.477Z,56.34
2023-08-12T19:17:52.404Z,55.93
2023-08-12T19:20:21.520Z,55.39
2023-08-12T19:22:50.640Z,56.36
2023-08-12T19:25:19.935Z,57.90
2023-08-12T19:27:50.209Z,58.19
2023-08-12T19:30:20.872Z,57.79
2023-08-12T19:32:51.149Z,58.45
2023-08-12T19:35:21.547Z,58.73
2023-08-12T19:37:52.995Z,59.18
2023-08-12T19:40:22.443Z,59.36
2023-08-12T19:42:52.630Z,58.74
2023-08-12T19:45:22.122Z,58.85
2023-08-12T19:47:51.016Z,59.09
2023-08-12T19:50:20.404Z,58.99
2023-08-12T19:52:50.428Z,60.09
2023-08-12T19:55:19.878Z,60.25
2023-08-12T19:57:48.651Z,60.67
2023-08-12T20:00:19.178Z,60.51
2023-08-12T20:02:49.044Z,61.42
2023-08-12T20:05:20.492Z,61.56
2023-08-12T20:07:50.680Z,61.62
2023-08-12T20:10:22.634Z,61.71
2023-08-12T20:12:51.853Z,61.48
2023-08-12T20:15:22.534Z,60.98
2023-08-12T20:17:51.513Z,61.11
2023-08-12T20:20:20.875Z,61.69
2023-08-12T20:23:03.895Z,62.26
2023-08-12T20:25:37.885Z,62.48
2023-08-12T20:28:08.303Z,63.18
2023-08-12T20:30:38.970Z,63.34
2023-08-12T20:33:08.260Z,63.50
2023-08-12T20:35:37.487Z,64.64
2023-08-12T20:38:06.780Z,64.71
2023-08-12T20:40:35.907Z,64.72
2023-08-12T20:43:05.364Z,64.19
2023-08-12T20:45:34.504Z,64.34
2023-08-12T20:48:05.288Z,64.70
2023-08-12T20:50:34.818Z,65.03
2023-08-12T20:53:04.297Z,65.26
2023-08-12T20:55:33.820Z,65.35
2023-08-12T20:58:03.015Z,65.09
2023-08-12T21:00:32.091Z,65.74
2023-08-12T21:03:01.002Z,65.70
2023-08-12T21:05:32.892Z,65.72
2023-08-12T21:08:01.798Z,66.29
2023-08-12T21:10:30.925Z,66.47
2023-08-12T21:12:59.769Z,66.31
2023-08-12T21:15:28.863Z,66.04
2023-08-12T21:17:57.784Z,66.44
2023-08-12T21:20:26.928Z,66.65
2023-08-12T21:22:57.071Z,66.50
2023-08-12T21:25:26.195Z,66.75
2023-08-12T21:27:55.045Z,66.67
2023-08-12T21:30:24.541Z,66.48
2023-08-12T21:32:53.457Z,66.82
2023-08-12T21:35:22.690Z,66.88
2023-08-12T21:37:51.487Z,66.88
2023-08-12T21:40:21.944Z,67.32
2023-08-12T21:42:50.798Z,67.32
2023-08-12T21:45:20.075Z,66.90
2023-08-12T21:47:49.189Z,67.00
2023-08-12T21:50:18.588Z,66.53
2023-08-12T21:52:47.467Z,67.85
2023-08-12T21:55:17.034Z,68.03
2023-08-12T21:57:47.180Z,68.47
2023-08-12T22:00:17.308Z,68.35
2023-08-12T22:02:48.716Z,68.56
2023-08-12T22:05:18.224Z,68.22
2023-08-12T22:07:47.407Z,67.73
2023-08-12T22:10:16.529Z,68.23
2023-08-12T22:12:48.037Z,68.80
2023-08-12T22:15:17.294Z,69.33
2023-08-12T22:17:48.974Z,69.46
2023-08-12T22:20:18.708Z,69.58
2023-08-12T22:22:47.547Z,69.76
2023-08-12T22:25:16.764Z,69.85
2023-08-12T22:27:46.947Z,69.83
2023-08-12T22:30:16.053Z,69.85
2023-08-12T22:32:45.210Z,70.09
2023-08-12T22:35:14.608Z,69.85
2023-08-12T22:37:43.451Z,70.16
2023-08-12T22:40:12.830Z,70.33
2023-08-12T22:42:41.672Z,70.43
2023-08-12T22:45:12.605Z,70.42
2023-08-12T22:47:41.467Z,70.52
2023-08-12T22:50:13.417Z,71.15
2023-08-12T22:52:43.329Z,70.85
2023-08-12T22:55:13.287Z,70.90
2023-08-12T22:57:42.145Z,70.58
2023-08-12T23:00:13.895Z,69.96
2023-08-12T23:02:42.886Z,69.98
2023-08-12T23:05:12.208Z,69.23
2023-08-12T23:07:41.030Z,69.52
2023-08-12T23:10:12.276Z,69.62
2023-08-12T23:12:41.110Z,69.55
2023-08-12T23:15:12.604Z,69.40
2023-08-12T23:17:41.573Z,69.00
2023-08-12T23:20:11.691Z,69.09
2023-08-12T23:22:40.651Z,69.13
2023-08-12T23:25:10.988Z,69.08
2023-08-12T23:27:39.826Z,69.54
2023-08-12T23:30:15.071Z,70.03
2023-08-12T23:32:45.520Z,70.41
2023-08-12T23:35:19.158Z,70.67
2023-08-12T23:37:49.173Z,70.92
2023-08-12T23:40:18.369Z,71.36
2023-08-12T23:42:47.287Z,71.67
2023-08-12T23:45:16.494Z,71.82
2023-08-12T23:47:47.037Z,71.62
2023-08-12T23:50:16.355Z,71.67
2023-08-12T23:57:17.467Z,71.30
2023-08-12T23:59:46.252Z,71.39
